Time;durP1;ratioP1;P1;durP2;ratioP2;P2;SDS_P1;SDS_P2;PMS_P1;PMS_P2;Temp;Humidity;BMP_temperature;BMP_pressure;BME280_temperature;BME280_humidity;BME280_pressure;Samples;Min_cycle;Max_cycle;Signal;HPM_P1;HPM_P2
2022/09/28 01:31:22;;;;;;;;;;;;;;;;;;;;;
2022/09/28 01:35:11;;;;;;;;;;;;;;;;;;;;;
2022/09/28 02:35:34;;;;;;;;;;;;;;;;;;;;;
2022/09/28 02:40:01;;;;;;;;;;;;;;;;;;;;;
2022/09/28 03:01:50;;;;;;;101.50;7.53;;;5.80;99.90;;;;;;4776276;29;20143;-93
2022/09/28 03:04:57;;;;;;;80.50;8.77;;;5.70;99.90;;;;;;4772376;29;20080;-92
2022/09/28 03:11:14;;;;;;;;;;;;;;;;;;;;;
2022/09/28 03:22:24;;;;;;;194.68;12.57;;;6.20;99.90;;;;;;4782051;29;20055;-92
2022/09/28 03:25:30;;;;;;;;;;;;;;;;;;;;;
2022/09/28 04:18:58;;;;;;;101.82;12.10;;;6.00;99.90;;;;;;4770341;30;20055;-91
2022/09/28 04:22:05;;;;;;;;;;;;;;;;;;;;;
2022/09/28 04:25:28;;;;;;;;;;;;;;;;;;;;;
2022/09/28 04:40:57;;;;;;;;;;;;;;;;;;;;;
2022/09/28 04:44:16;;;;;;;;;;;6.00;99.90;;;;;;4804442;29;20159;-90
2022/09/28 04:46:27;;;;;;;119.63;10.40;;;6.00;99.90;;;;;;4786229;29;20335;-91
2022/09/28 04:48:53;;;;;;;104.45;10.80;;;6.00;99.90;;;;;;4788492;29;20050;-90
2022/09/28 04:52:39;;;;;;;65.47;9.60;;;6.00;99.90;;;;;;4788386;29;20498;-90
2022/09/28 04:54:47;;;;;;;;;;;;;;;;;;;;;
2022/09/28 04:57:21;;;;;;;71.15;9.48;;;6.10;99.90;;;;;;4770639;30;20124;-90
2022/09/28 05:00:02;;;;;;;159.77;12.27;;;6.10;99.90;;;;;;4784862;30;20058;-90
2022/09/28 05:02:38;;;;;;;;;;;;;;;;;;;;;
2022/09/28 05:05:47;;;;;;;108.47;10.88;;;6.00;99.90;;;;;;4784868;30;20147;-90
2022/09/28 05:08:05;;;;;;;112.65;12.50;;;6.00;99.90;;;;;;4786058;29;20062;-88
2022/09/28 05:13:41;;;;;;;;;;;;;;;;;;;;;
2022/09/28 05:16:41;;;;;;;129.25;11.90;;;5.90;99.90;;;;;;4770554;30;20134;-91
2022/09/28 05:20:13;;;;;;;155.98;14.65;;;5.90;99.90;;;;;;4785129;30;20059;-90
2022/09/28 05:23:13;;;;;;;;;;;;;;;;;;;;;
2022/09/28 05:26:05;;;;;;;136.10;11.30;;;5.90;99.90;;;;;;4768518;30;20145;-90
2022/09/28 05:29:22;;;;;;;;;;;;;;;;;;;;;
2022/09/28 05:32:21;;;;;;;;;;;;;;;;;;;;;
2022/09/28 05:34:59;;;;;;;;;;;;;;;;;;;;;
2022/09/28 05:41:18;;;;;;;;;;;;;;;;;;;;;
2022/09/28 05:43:54;;;;;;;206.63;12.80;;;6.00;99.90;;;;;;4805695;29;20053;-89
2022/09/28 05:46:28;;;;;;;203.93;13.30;;;5.90;99.90;;;;;;4806424;29;20062;-90
2022/09/28 05:48:59;;;;;;;205.07;12.50;;;5.90;99.90;;;;;;4805562;29;20046;-90
2022/09/28 05:52:06;;;;;;;188.32;12.88;;;5.90;99.90;;;;;;4820630;29;20050;-90
2022/09/28 05:55:02;;;;;;;125.60;11.25;;;5.90;99.90;;;;;;4787858;29;20198;-90
2022/09/28 05:57:29;;;;;;;130.32;10.52;;;6.50;99.90;;;;;;4804504;29;20100;-90
2022/09/28 05:59:58;;;;;;;76.45;10.10;;;5.80;99.90;;;;;;4821033;29;20050;-90
2022/09/28 06:02:45;;;;;;;96.53;10.55;;;5.80;99.90;;;;;;4805079;29;20178;-90
2022/09/28 06:08:28;;;;;;;96.25;10.98;;;5.80;99.90;;;;;;4802861;29;20058;-90
2022/09/28 06:11:11;;;;;;;139.60;12.02;;;5.80;99.90;;;;;;4786722;29;20061;-89
2022/09/28 06:13:48;;;;;;;133.98;11.88;;;5.50;99.90;;;;;;4787782;29;20420;-90
2022/09/28 06:16:41;;;;;;;136.63;12.20;;;5.30;99.90;;;;;;4787549;29;20073;-90
2022/09/28 06:22:56;;;;;;;111.07;10.68;;;5.70;99.90;;;;;;4755379;29;20504;-90
2022/09/28 06:28:25;;;;;;;70.13;12.82;;;6.10;99.90;;;;;;4810995;29;20137;-90
2022/09/28 06:31:02;;;;;;;142.25;13.40;;;6.00;99.90;;;;;;4804266;29;20464;-90
2022/09/28 06:33:51;;;;;;;;;;;;;;;;;;;;;
2022/09/28 06:37:03;;;;;;;;;;;;;;;;;;;;;
2022/09/28 06:40:42;;;;;;;163.27;13.32;;;6.20;99.90;;;;;;4821082;29;20052;-90
2022/09/28 06:42:57;;;;;;;162.80;13.85;;;6.00;99.90;;;;;;4815898;29;20054;-90
2022/09/28 06:45:30;;;;;;;164.18;16.27;;;6.40;99.90;;;;;;4804477;29;20137;-90
2022/09/28 06:48:00;;;;;;;161.27;13.98;;;6.20;99.90;;;;;;4804506;29;20106;-90
2022/09/28 06:50:32;;;;;;;146.05;13.43;;;6.50;99.90;;;;;;4818861;29;20439;-90
2022/09/28 06:53:11;;;;;;;;;;;;;;;;;;;;;
2022/09/28 06:55:58;;;;;;;194.90;14.18;;;6.60;99.90;;;;;;4789649;29;20055;-90
2022/09/28 06:58:39;;;;;;;198.52;14.07;;;7.00;99.90;;;;;;4796334;23;20049;-90
2022/09/28 07:01:05;;;;;;;155.48;12.30;;;6.80;99.90;;;;;;4793419;29;20051;-89
2022/09/28 07:04:21;;;;;;;227.77;16.10;;;6.90;99.90;;;;;;4795106;29;20053;-90
2022/09/28 07:06:49;;;;;;;176.95;13.63;;;6.90;99.90;;;;;;4788684;29;20066;-90
2022/09/28 07:09:18;;;;;;;110.97;12.40;;;6.90;99.90;;;;;;4797477;29;20043;-90
2022/09/28 07:11:46;;;;;;;115.35;11.30;;;7.10;99.90;;;;;;4792608;29;20050;-90
2022/09/28 07:14:15;;;;;;;147.35;12.68;;;7.20;99.90;;;;;;4794982;29;20058;-90
2022/09/28 07:16:40;;;;;;;121.93;12.02;;;7.30;99.90;;;;;;4795535;29;20094;-90
2022/09/28 07:19:11;;;;;;;107.10;12.23;;;7.30;99.90;;;;;;4796408;29;20050;-90
2022/09/28 07:21:54;;;;;;;102.07;11.02;;;7.40;99.90;;;;;;4794662;29;20043;-89
2022/09/28 07:24:35;;;;;;;;;;;;;;;;;;;;;
2022/09/28 07:31:19;;;;;;;134.10;13.38;;;7.60;99.90;;;;;;4765758;30;20125;-89
2022/09/28 07:34:23;;;;;;;;;;;;;;;;;;;;;
2022/09/28 07:37:46;;;;;;;157.18;13.50;;;7.80;99.90;;;;;;4778238;29;20065;-92
2022/09/28 07:43:06;;;;;;;145.70;12.57;;;7.80;99.90;;;;;;4810563;29;20488;-89
2022/09/28 07:45:35;;;;;;;150.48;14.05;;;7.90;99.90;;;;;;4795015;29;20054;-90
2022/09/28 07:48:12;;;;;;;126.75;12.25;;;8.00;99.90;;;;;;4790600;29;20071;-90
2022/09/28 07:50:51;;;;;;;106.80;11.80;;;8.00;99.90;;;;;;4793039;29;20043;-91
2022/09/28 07:53:29;;;;;;;135.63;12.45;;;8.20;99.90;;;;;;4797410;29;20522;-91
2022/09/28 07:56:16;;;;;;;99.47;11.15;;;8.20;99.90;;;;;;4796878;29;20047;-91
2022/09/28 07:59:05;;;;;;;100.10;12.32;;;7.70;99.90;;;;;;4796514;29;20153;-91
2022/09/28 08:01:31;;;;;;;46.53;10.68;;;8.50;99.90;;;;;;4797763;29;20504;-90
2022/09/28 08:07:10;;;;;;;54.75;11.45;;;8.80;99.90;;;;;;4767850;29;20518;-90
2022/09/28 08:09:36;;;;;;;95.65;11.45;;;8.70;99.90;;;;;;4798703;29;20058;-91
2022/09/28 08:12:03;;;;;;;74.80;10.52;;;9.10;99.90;;;;;;4781547;29;20049;-90
2022/09/28 08:14:34;;;;;;;32.03;10.18;;;9.10;99.90;;;;;;4792181;29;20054;-90
2022/09/28 08:17:01;;;;;;;48.55;11.35;;;9.10;99.90;;;;;;4787622;29;20047;-91
2022/09/28 08:21:43;;;;;;;49.17;10.80;;;9.10;99.90;;;;;;4788586;29;20065;-91
2022/09/28 08:22:22;;;;;;;40.42;11.60;;;9.00;99.90;;;;;;4786942;29;20055;-91
2022/09/28 08:24:50;;;;;;;23.42;11.18;;;9.10;99.90;;;;;;4787520;29;20411;-90
2022/09/28 08:27:16;;;;;;;41.17;11.57;;;9.20;99.90;;;;;;4787965;29;20043;-90
2022/09/28 08:29:42;;;;;;;30.50;10.55;;;9.30;99.90;;;;;;4787673;29;20046;-90
2022/09/28 08:32:09;;;;;;;16.52;10.45;;;9.40;99.90;;;;;;4787985;29;20046;-91
2022/09/28 08:34:38;;;;;;;15.27;10.05;;;9.40;99.90;;;;;;4788399;29;20043;-91
2022/09/28 08:37:05;;;;;;;27.95;11.25;;;9.50;99.90;;;;;;4788068;29;20065;-90
2022/09/28 08:39:33;;;;;;;20.67;10.40;;;9.60;99.90;;;;;;4788147;29;20059;-90
2022/09/28 08:42:30;;;;;;;15.07;10.20;;;9.80;99.90;;;;;;4787578;29;20516;-91
2022/09/28 08:45:26;;;;;;;12.77;9.18;;;10.00;99.90;;;;;;4786449;29;20115;-91
2022/09/28 08:51:59;;;;;;;13.48;9.77;;;9.70;99.90;;;;;;4786142;29;20059;-91
2022/09/28 08:54:59;;;;;;;;;;;;;;;;;;;;;
2022/09/28 08:58:00;;;;;;;12.52;8.80;;;10.10;99.90;;;;;;4787861;29;20526;-91
2022/09/28 09:00:37;;;;;;;14.00;9.10;;;9.90;99.90;;;;;;4770548;29;20051;-91
2022/09/28 09:03:48;;;;;;;;;;;;;;;;;;;;;
2022/09/28 09:10:51;;;;;;;12.93;8.40;;;9.90;99.90;;;;;;4778712;29;20055;-91
2022/09/28 09:13:40;;;;;;;14.80;9.52;;;10.10;99.90;;;;;;4780950;29;20496;-91
2022/09/28 09:20:06;;;;;;;;;;;;;;;;;;;;;
2022/09/28 09:23:29;;;;;;;;;;;;;;;;;;;;;
2022/09/28 09:26:39;;;;;;;15.02;8.55;;;10.30;99.90;;;;;;4770094;30;20224;-91
2022/09/28 09:29:36;;;;;;;;;;;;;;;;;;;;;
2022/09/28 09:32:24;;;;;;;13.35;7.38;;;10.30;99.90;;;;;;4787409;29;20480;-91
2022/09/28 09:35:21;;;;;;;15.00;8.23;;;10.30;99.90;;;;;;4786399;29;20261;-91
2022/09/28 09:38:05;;;;;;;;;;;10.30;99.90;;;;;;4787708;29;20061;-92
2022/09/28 09:40:40;;;;;;;10.75;8.23;;;10.40;99.90;;;;;;4787001;29;19925;-91
2022/09/28 09:43:52;;;;;;;11.30;7.57;;;10.60;99.90;;;;;;4787328;29;20439;-91
2022/09/28 09:46:50;;;;;;;10.23;7.07;;;10.80;99.90;;;;;;4787510;29;20058;-91
2022/09/28 09:49:42;;;;;;;10.18;6.80;;;10.90;99.90;;;;;;4783675;29;20047;-91
2022/09/28 09:52:17;;;;;;;10.23;7.43;;;11.00;99.90;;;;;;4771761;29;20086;-90
2022/09/28 10:11:22;;;;;;;;;;;;;;;;;;;;;
2022/09/28 10:15:25;;;;;;;;;;;;;;;;;;;;;
2022/09/28 10:19:16;;;;;;;6.32;3.55;;;12.10;99.90;;;;;;4761389;30;20505;-91
2022/09/28 11:03:09;;;;;;;3.30;1.20;;;13.60;99.90;;;;;;4816516;29;20059;-92
2022/09/28 11:06:07;;;;;;;2.50;0.93;;;13.40;99.90;;;;;;4817253;29;20055;-91
2022/09/28 12:24:55;;;;;;;3.08;0.52;;;14.00;99.90;;;;;;4236307;27;26222726;-88
2022/09/28 12:27:57;;;;;;;;;;;;;;;;;;;;;
2022/09/28 12:30:26;;;;;;;1.92;0.38;;;13.80;99.90;;;;;;5172759;27;20048;-88
2022/09/28 12:33:30;;;;;;;1.98;0.40;;;13.60;99.90;;;;;;5156041;27;20065;-88
2022/09/28 12:36:40;;;;;;;;;;;;;;;;;;;;;
2022/09/28 12:39:58;;;;;;;3.00;0.50;;;13.30;99.90;;;;;;5173063;27;20056;-89
2022/09/28 12:42:51;;;;;;;1.45;0.30;;;12.50;99.90;;;;;;5155501;27;20529;-89
2022/09/28 12:46:04;;;;;;;2.22;0.30;;;13.10;99.90;;;;;;5155314;27;20034;-88
2022/09/28 12:49:33;;;;;;;2.72;0.20;;;13.00;99.90;;;;;;5121832;27;20088;-89
2022/09/28 12:52:32;;;;;;;;;;;;;;;;;;;;;
2022/09/28 12:55:32;;;;;;;0.80;0.28;;;12.90;99.90;;;;;;5172463;27;20054;-88
2022/09/28 12:58:49;;;;;;;;;;;;;;;;;;;;;
2022/09/28 13:01:42;;;;;;;4.57;0.40;;;12.90;99.90;;;;;;5172338;27;20515;-89
2022/09/28 13:07:56;;;;;;;0.75;0.17;;;12.90;99.90;;;;;;5136907;22;20087;-88
2022/09/28 13:10:38;;;;;;;0.98;0.20;;;12.80;99.90;;;;;;5037721;28;20051;-87
2022/09/28 13:13:44;;;;;;;2.22;0.30;;;12.80;99.90;;;;;;5089887;28;20055;-89
2022/09/28 13:16:44;;;;;;;2.63;0.45;;;12.80;99.90;;;;;;5089714;28;20490;-88
2022/09/28 13:19:36;;;;;;;0.80;0.20;;;12.70;99.90;;;;;;5089895;28;20134;-89
2022/09/28 13:22:38;;;;;;;1.52;0.20;;;12.70;99.90;;;;;;5088951;28;20044;-88
2022/09/28 13:25:27;;;;;;;3.47;0.60;;;12.70;99.90;;;;;;5072925;28;20392;-88
2022/09/28 13:28:01;;;;;;;5.93;0.52;;;12.70;99.90;;;;;;5089316;28;20134;-88
2022/09/28 13:30:51;;;;;;;;;;;;;;;;;;;;;
2022/09/28 13:33:33;;;;;;;2.13;0.43;;;12.60;99.90;;;;;;5104957;28;20131;-89
2022/09/28 13:36:01;;;;;;;1.83;0.40;;;12.60;99.90;;;;;;5074930;28;20138;-89
2022/09/28 13:38:26;;;;;;;1.27;0.20;;;12.60;99.90;;;;;;5074274;28;20032;-89
2022/09/28 13:41:02;;;;;;;3.83;0.55;;;12.60;99.90;;;;;;5073999;28;20051;-89
2022/09/28 13:43:44;;;;;;;4.68;0.40;;;12.60;99.90;;;;;;5073008;28;20408;-88
2022/09/28 13:46:25;;;;;;;1.90;0.50;;;12.60;99.90;;;;;;5070225;28;20051;-89
2022/09/28 13:49:08;;;;;;;1.40;0.50;;;12.60;99.90;;;;;;5074479;28;20039;-89
2022/09/28 13:51:47;;;;;;;5.72;0.60;;;12.60;99.90;;;;;;5074964;28;20040;-89
2022/09/28 13:54:45;;;;;;;3.92;0.60;;;12.70;99.90;;;;;;5074143;28;20051;-89
2022/09/28 13:57:40;;;;;;;2.22;0.68;;;12.80;99.90;;;;;;5074764;28;20044;-90
2022/09/28 14:00:29;;;;;;;2.10;0.50;;;12.90;99.90;;;;;;5072291;28;20067;-90
2022/09/28 14:03:09;;;;;;;5.50;0.70;;;13.00;99.90;;;;;;5070241;28;20044;-89
2022/09/28 14:06:15;;;;;;;4.72;0.82;;;13.10;99.90;;;;;;5069798;28;20048;-89
2022/09/28 14:09:14;;;;;;;4.22;0.80;;;13.30;99.90;;;;;;5088115;28;20098;-90
2022/09/28 14:11:43;;;;;;;4.28;1.52;;;13.50;99.90;;;;;;5062644;28;20047;-90
2022/09/28 14:14:10;;;;;;;4.38;0.70;;;13.60;99.90;;;;;;5074583;28;20143;-89
2022/09/28 14:16:38;;;;;;;1.60;0.70;;;13.70;99.90;;;;;;5073867;28;20704;-89
2022/09/28 14:19:08;;;;;;;1.23;0.50;;;13.90;99.90;;;;;;5074019;28;20089;-88
2022/09/28 14:21:37;;;;;;;2.97;0.75;;;14.00;99.90;;;;;;5073275;28;20051;-88
2022/09/28 14:24:16;;;;;;;5.63;0.50;;;14.00;99.90;;;;;;5073836;28;20048;-88
2022/09/28 14:27:08;;;;;;;4.43;0.90;;;14.00;99.90;;;;;;5074313;28;20040;-88
2022/09/28 14:29:36;;;;;;;1.85;0.60;;;14.10;99.90;;;;;;5074755;28;20138;-89
2022/09/28 14:32:10;;;;;;;6.47;1.25;;;14.10;99.90;;;;;;5073759;28;20110;-89
2022/09/28 14:34:40;;;;;;;3.10;0.57;;;14.10;99.90;;;;;;5073698;28;20044;-88
2022/09/28 14:43:25;;;;;;;4.20;0.90;;;13.90;99.90;;;;;;5089199;28;20499;-89
2022/09/28 14:46:16;;;;;;;5.63;0.63;;;13.80;99.90;;;;;;5052927;28;20047;-91
2022/09/28 14:48:49;;;;;;;1.77;0.40;;;13.80;99.90;;;;;;5056553;28;20055;-90
2022/09/28 14:51:25;;;;;;;1.60;0.40;;;13.80;99.90;;;;;;5054851;28;20083;-90
2022/09/28 14:53:54;;;;;;;1.58;0.40;;;13.80;99.90;;;;;;5074090;28;20052;-90
2022/09/28 14:56:20;;;;;;;4.32;0.40;;;13.70;99.90;;;;;;5073439;28;20521;-90
2022/09/28 14:58:54;;;;;;;8.13;0.95;;;13.60;99.90;;;;;;5074490;28;20202;-90
2022/09/28 15:01:23;;;;;;;0.73;0.30;;;13.50;99.90;;;;;;5074176;28;20073;-89
2022/09/28 15:03:53;;;;;;;1.38;0.50;;;13.40;99.90;;;;;;5074143;28;20040;-90
2022/09/28 15:06:22;;;;;;;2.42;0.50;;;13.50;99.90;;;;;;5072571;28;20048;-89
2022/09/28 15:08:50;;;;;;;2.75;0.50;;;13.50;99.90;;;;;;5073502;28;20043;-90
2022/09/28 15:11:25;;;;;;;2.83;0.50;;;13.50;99.90;;;;;;5073536;28;20096;-89
2022/09/28 15:14:11;;;;;;;2.38;0.30;;;13.50;99.90;;;;;;5074158;28;20055;-91
2022/09/28 15:16:36;;;;;;;;;;;13.60;99.90;;;;;;5074115;28;20456;-91
2022/09/28 15:19:19;;;;;;;1.60;0.52;;;13.70;99.90;;;;;;5074742;28;19931;-91
2022/09/28 15:21:47;;;;;;;3.00;0.80;;;13.80;99.90;;;;;;5073548;28;20040;-91
2022/09/28 15:24:53;;;;;;;1.15;0.32;;;13.70;99.90;;;;;;5073716;28;20056;-90
2022/09/28 15:27:18;;;;;;;2.78;0.50;;;13.70;99.90;;;;;;5073086;28;20047;-91
2022/09/28 15:30:17;;;;;;;2.30;0.40;;;13.80;99.90;;;;;;5073841;28;20048;-91
2022/09/28 15:32:43;;;;;;;2.63;0.57;;;13.80;99.90;;;;;;5073478;28;20121;-91
2022/09/28 15:35:31;;;;;;;2.35;0.38;;;13.80;99.90;;;;;;5073345;28;20387;-91
2022/09/28 15:37:57;;;;;;;1.45;0.55;;;13.80;99.90;;;;;;5073073;28;20121;-91
2022/09/28 15:40:46;;;;;;;;;;;;;;;;;;;;;
2022/09/28 15:43:45;;;;;;;2.97;0.70;;;13.80;99.90;;;;;;5090775;28;20082;-92
2022/09/28 15:46:21;;;;;;;3.22;0.65;;;13.80;99.90;;;;;;5072597;28;20121;-93
2022/09/28 15:48:56;;;;;;;4.13;1.25;;;13.80;99.90;;;;;;5073032;28;20174;-89
2022/09/28 15:51:24;;;;;;;1.30;0.40;;;13.70;99.90;;;;;;5072269;28;20051;-89
2022/09/28 15:54:22;;;;;;;;;;;;;;;;;;;;;
2022/09/28 15:57:13;;;;;;;2.50;0.50;;;13.60;99.90;;;;;;5079760;28;20566;-92
2022/09/28 16:00:05;;;;;;;;;;;;;;;;;;;;;
2022/09/28 16:03:21;;;;;;;3.97;0.45;;;13.30;99.90;;;;;;5069863;28;20051;-89
2022/09/28 16:13:28;;;;;;;3.70;0.52;;;13.00;99.90;;;;;;5013996;28;20433;-90
2022/09/28 16:15:58;;;;;;;3.08;0.40;;;12.90;99.90;;;;;;5034130;28;20033;-89
2022/09/28 16:18:27;;;;;;;2.67;0.50;;;12.80;99.90;;;;;;5043695;28;20048;-89
2022/09/28 16:20:55;;;;;;;1.20;0.20;;;12.70;99.90;;;;;;5048646;28;20045;-90
2022/09/28 16:23:28;;;;;;;1.98;0.40;;;12.50;99.90;;;;;;5052546;28;20109;-90
2022/09/28 16:25:57;;;;;;;1.95;0.30;;;12.40;99.90;;;;;;5052359;28;20156;-89
2022/09/28 16:28:47;;;;;;;2.65;0.30;;;12.30;99.90;;;;;;5052421;28;20054;-88
2022/09/28 16:31:13;;;;;;;3.30;0.63;;;12.20;99.90;;;;;;5051694;28;20480;-90
2022/09/28 16:33:45;;;;;;;1.88;0.40;;;12.00;99.90;;;;;;5052232;28;20041;-89
2022/09/28 16:36:16;;;;;;;2.78;0.35;;;11.90;99.90;;;;;;5051651;28;20036;-89
2022/09/28 16:38:45;;;;;;;0.73;0.20;;;11.80;99.90;;;;;;5052556;28;20431;-89
2022/09/28 16:41:12;;;;;;;5.60;0.40;;;11.80;99.90;;;;;;5048654;28;20055;-89
2022/09/28 16:43:39;;;;;;;4.80;0.60;;;11.70;99.90;;;;;;5052158;28;20042;-89
2022/09/28 16:46:12;;;;;;;3.45;0.40;;;11.60;99.90;;;;;;5040731;28;20075;-90
2022/09/28 16:49:00;;;;;;;1.55;0.50;;;11.60;99.90;;;;;;5052509;28;20084;-89
2022/09/28 16:51:26;;;;;;;2.25;0.40;;;11.50;99.90;;;;;;5047715;28;20036;-89
2022/09/28 16:56:37;;;;;;;0.35;0.20;;;11.30;99.90;;;;;;5067134;28;20041;-92
2022/09/28 16:59:22;;;;;;;2.38;0.40;;;11.10;99.90;;;;;;5051242;28;20043;-96
2022/09/28 17:06:30;;;;;;;2.08;0.20;;;10.80;99.90;;;;;;5013368;28;20049;-92
2022/09/28 17:09:07;;;;;;;;;;;;;;;;;;;;;
2022/09/28 17:11:39;;;;;;;1.27;0.20;;;10.50;99.90;;;;;;5052639;28;20543;-93
2022/09/28 17:14:05;;;;;;;4.05;0.50;;;10.40;99.90;;;;;;5051501;28;20040;-92
2022/09/28 17:16:31;;;;;;;1.67;0.28;;;10.30;99.90;;;;;;5055978;28;20048;-92
2022/09/28 17:18:59;;;;;;;4.85;2.30;;;10.20;99.90;;;;;;5055111;28;20439;-92
2022/09/28 17:21:27;;;;;;;23.35;15.73;;;10.10;99.90;;;;;;5054083;28;20048;-91
2022/09/28 17:23:53;;;;;;;39.38;29.05;;;10.00;99.90;;;;;;5053421;28;20048;-92
2022/09/28 17:26:30;;;;;;;20.48;15.23;;;9.90;99.90;;;;;;5047455;28;20067;-92
2022/09/28 17:28:58;;;;;;;17.10;13.90;;;9.90;99.90;;;;;;5038060;28;20056;-93
2022/09/28 17:31:24;;;;;;;22.58;17.80;;;9.70;99.90;;;;;;5035052;28;20132;-92
2022/09/28 17:33:54;;;;;;;23.02;17.42;;;9.70;99.90;;;;;;5035001;28;20041;-93
2022/09/28 17:36:24;;;;;;;15.73;10.20;;;9.60;99.90;;;;;;5040847;28;20556;-92
2022/09/28 17:38:53;;;;;;;8.38;5.63;;;9.50;99.90;;;;;;5034744;28;20673;-93
2022/09/28 17:41:19;;;;;;;3.22;1.80;;;9.50;99.90;;;;;;5040468;28;20412;-92
2022/09/28 17:43:48;;;;;;;5.65;2.25;;;9.30;99.90;;;;;;5055033;28;20044;-92
2022/09/28 17:46:26;;;;;;;3.67;1.73;;;9.30;99.90;;;;;;5053467;28;20157;-93
2022/09/28 17:49:04;;;;;;;1.85;1.00;;;9.20;99.90;;;;;;5054538;28;20170;-93
2022/09/28 17:51:36;;;;;;;3.50;1.02;;;9.10;99.90;;;;;;5055004;28;20052;-92
2022/09/28 17:54:05;;;;;;;6.90;1.40;;;9.10;99.90;;;;;;5036875;28;20047;-92
2022/09/28 17:56:46;;;;;;;2.67;1.10;;;9.00;99.90;;;;;;5036416;28;20041;-92
2022/09/28 17:59:33;;;;;;;4.90;1.30;;;9.00;99.90;;;;;;5039444;28;20041;-92
2022/09/28 18:02:01;;;;;;;2.13;1.15;;;8.90;99.90;;;;;;5040755;28;20041;-93
2022/09/28 18:04:29;;;;;;;4.45;1.13;;;8.80;99.90;;;;;;5034318;28;20140;-92
2022/09/28 18:06:57;;;;;;;3.42;1.05;;;8.80;99.90;;;;;;5045580;28;20041;-92
2022/09/28 18:09:26;;;;;;;3.50;0.80;;;8.70;99.90;;;;;;5040712;28;20053;-93
2022/09/28 18:12:15;;;;;;;;;;;;;;;;;;;;;
2022/09/28 18:15:16;;;;;;;2.15;1.08;;;8.70;99.90;;;;;;5070976;28;20044;-91
2022/09/28 18:17:42;;;;;;;5.35;1.13;;;8.60;99.90;;;;;;5054306;28;20080;-91
2022/09/28 18:20:10;;;;;;;2.65;1.13;;;8.50;99.90;;;;;;5055067;28;20040;-91
2022/09/28 18:22:36;;;;;;;1.63;1.15;;;8.50;99.90;;;;;;5054753;28;20052;-91
2022/09/28 18:25:03;;;;;;;2.70;1.27;;;8.40;99.90;;;;;;5054547;28;20036;-92
2022/09/28 18:27:31;;;;;;;2.78;1.42;;;8.40;99.90;;;;;;5054593;28;20098;-90
2022/09/28 18:29:58;;;;;;;4.10;1.10;;;8.30;99.90;;;;;;5054309;28;20452;-92
2022/09/28 18:32:23;;;;;;;3.05;1.00;;;8.30;99.90;;;;;;5054254;28;20044;-92
2022/09/28 18:34:49;;;;;;;1.83;0.82;;;8.20;99.90;;;;;;5054689;28;20404;-91
2022/09/28 18:37:16;;;;;;;3.83;1.27;;;8.10;99.90;;;;;;5053842;28;20472;-91
2022/09/28 18:39:46;;;;;;;3.05;1.08;;;8.10;99.90;;;;;;5052357;28;20055;-91
2022/09/28 18:42:27;;;;;;;1.83;0.98;;;8.00;99.90;;;;;;5055669;28;20074;-91
2022/09/28 18:44:53;;;;;;;8.80;1.45;;;7.90;99.90;;;;;;5053862;28;20088;-91
2022/09/28 18:47:19;;;;;;;2.55;1.40;;;7.20;99.90;;;;;;5054394;28;20045;-91
2022/09/28 18:49:46;;;;;;;3.70;1.38;;;7.80;99.90;;;;;;5053318;28;20052;-91
2022/09/28 18:52:14;;;;;;;5.35;1.55;;;7.80;99.90;;;;;;5054046;28;20040;-91
2022/09/28 18:54:41;;;;;;;5.28;2.20;;;7.80;99.90;;;;;;5054072;28;20055;-92
2022/09/28 18:57:08;;;;;;;8.52;1.70;;;7.80;99.90;;;;;;5053528;28;20072;-92
2022/09/28 18:59:36;;;;;;;2.53;1.60;;;7.80;99.90;;;;;;5054541;28;20086;-90
2022/09/28 19:02:03;;;;;;;5.10;2.70;;;7.80;99.90;;;;;;5053265;28;20037;-91
2022/09/28 19:05:18;;;;;;;4.10;2.22;;;7.80;99.90;;;;;;5053595;28;20048;-91
2022/09/28 19:07:20;;;;;;;6.68;2.03;;;7.70;99.90;;;;;;5059885;28;20040;-91
2022/09/28 19:09:47;;;;;;;7.10;2.33;;;7.70;99.90;;;;;;5052631;28;20385;-92
2022/09/28 19:12:18;;;;;;;5.60;3.25;;;7.70;99.90;;;;;;5053232;28;20139;-90
2022/09/28 19:14:45;;;;;;;3.63;2.30;;;7.70;99.90;;;;;;5052919;28;20388;-90
2022/09/28 19:17:13;;;;;;;4.97;2.75;;;7.60;99.90;;;;;;5053344;28;20145;-92
2022/09/28 19:19:42;;;;;;;6.75;2.97;;;7.60;99.90;;;;;;5053057;28;20052;-92
2022/09/28 19:22:08;;;;;;;4.32;2.67;;;7.60;99.90;;;;;;5053223;28;20131;-91
2022/09/28 19:24:35;;;;;;;4.38;2.30;;;7.50;99.90;;;;;;5052641;28;20057;-91
2022/09/28 19:27:02;;;;;;;7.07;2.28;;;7.40;99.90;;;;;;5053301;28;20131;-90
2022/09/28 19:29:29;;;;;;;3.72;2.30;;;7.40;99.90;;;;;;5052981;28;20110;-91
2022/09/28 19:31:56;;;;;;;4.30;2.33;;;7.30;99.90;;;;;;5052202;28;20043;-91
2022/09/28 19:34:28;;;;;;;11.57;2.42;;;7.30;99.90;;;;;;5052990;28;20044;-91
2022/09/28 19:36:56;;;;;;;3.28;2.05;;;7.30;99.90;;;;;;5052774;28;20496;-91
2022/09/28 19:39:22;;;;;;;3.38;2.08;;;7.20;99.90;;;;;;5053087;28;20044;-91
2022/09/28 19:41:50;;;;;;;5.25;2.67;;;7.20;99.90;;;;;;5051690;28;20044;-91
2022/09/28 19:44:42;;;;;;;5.75;2.88;;;7.20;99.90;;;;;;5052766;28;20036;-90
2022/09/28 19:47:10;;;;;;;4.67;2.77;;;7.20;99.90;;;;;;5058613;28;20094;-90
2022/09/28 19:49:57;;;;;;;5.65;2.33;;;7.10;99.90;;;;;;5048762;28;20123;-91
2022/09/28 19:52:24;;;;;;;6.32;2.40;;;7.10;99.90;;;;;;5033039;28;20098;-90
2022/09/28 19:57:38;;;;;;;6.53;2.97;;;7.10;99.90;;;;;;5067504;28;20392;-90
2022/09/28 20:00:11;;;;;;;4.72;2.70;;;7.10;99.90;;;;;;5049239;28;20158;-90
2022/09/28 20:02:36;;;;;;;4.68;2.90;;;7.10;99.90;;;;;;5036346;28;20045;-89
2022/09/28 20:05:03;;;;;;;6.68;2.85;;;7.00;99.90;;;;;;5052198;28;20094;-90
2022/09/28 20:07:31;;;;;;;7.07;4.05;;;7.00;99.90;;;;;;5052048;28;20052;-90
2022/09/28 20:09:57;;;;;;;12.38;6.70;;;6.90;99.90;;;;;;5052226;28;20093;-90
2022/09/28 20:12:23;;;;;;;26.13;14.68;;;6.90;99.90;;;;;;5051460;28;20044;-90
2022/09/28 20:14:52;;;;;;;31.63;21.67;;;6.90;99.90;;;;;;5052487;28;20462;-90
2022/09/28 20:17:20;;;;;;;32.03;20.95;;;6.90;99.90;;;;;;5051351;28;20033;-90
2022/09/28 20:19:46;;;;;;;18.00;12.25;;;6.80;99.90;;;;;;5052360;28;20457;-89
2022/09/28 20:22:12;;;;;;;20.67;13.07;;;6.80;99.90;;;;;;5051309;28;20045;-90
2022/09/28 20:24:40;;;;;;;15.93;9.57;;;6.80;99.90;;;;;;5051871;28;20079;-90
2022/09/28 20:27:06;;;;;;;12.05;8.35;;;6.80;99.90;;;;;;5051811;28;20105;-89
2022/09/28 20:29:33;;;;;;;12.18;8.13;;;6.80;99.90;;;;;;5051958;28;20048;-90
2022/09/28 20:31:59;;;;;;;13.63;6.50;;;6.70;99.90;;;;;;5051584;28;20353;-91
2022/09/28 20:34:25;;;;;;;6.68;4.60;;;6.70;99.90;;;;;;5036276;28;20110;-91
2022/09/28 20:36:51;;;;;;;7.03;4.80;;;6.70;99.90;;;;;;5051123;28;20045;-90
2022/09/28 20:39:17;;;;;;;11.27;5.00;;;6.70;99.90;;;;;;5048744;28;20115;-91
2022/09/28 20:41:48;;;;;;;8.60;4.53;;;6.60;99.90;;;;;;5049963;28;20035;-91
2022/09/28 20:44:17;;;;;;;6.30;3.40;;;6.60;99.90;;;;;;5067700;28;20048;-91
2022/09/28 20:46:43;;;;;;;7.35;3.40;;;6.60;99.90;;;;;;5054067;28;20396;-91
2022/09/28 20:49:09;;;;;;;5.60;3.30;;;6.50;99.90;;;;;;5054182;28;20040;-91
2022/09/28 20:51:35;;;;;;;156.23;6.68;;;6.50;99.90;;;;;;5053309;28;20079;-92
2022/09/28 20:54:01;;;;;;;126.63;6.00;;;6.50;99.90;;;;;;5054694;28;20064;-91
2022/09/28 20:56:36;;;;;;;15.65;4.13;;;6.40;99.90;;;;;;5053277;28;20064;-91
2022/09/28 20:59:14;;;;;;;7.45;3.60;;;6.30;99.90;;;;;;5055323;28;20105;-91
2022/09/28 21:01:42;;;;;;;5.43;3.08;;;6.30;99.90;;;;;;5053533;28;20801;-92
2022/09/28 21:04:09;;;;;;;59.38;3.95;;;6.30;99.90;;;;;;5044652;28;20083;-91
2022/09/28 21:06:39;;;;;;;39.53;3.17;;;6.30;99.90;;;;;;5050520;28;20055;-92
2022/09/28 21:09:06;;;;;;;28.55;3.03;;;6.20;99.90;;;;;;5054319;28;20123;-91
2022/09/28 21:11:34;;;;;;;105.40;4.13;;;6.20;99.90;;;;;;5054952;28;20062;-91
2022/09/28 21:14:05;;;;;;;126.75;5.50;;;6.20;99.90;;;;;;5054341;28;20080;-91
2022/09/28 21:16:33;;;;;;;97.75;4.50;;;6.10;99.90;;;;;;5054880;28;20055;-91
2022/09/28 21:19:12;;;;;;;35.42;3.45;;;6.00;99.90;;;;;;5053579;28;20048;-91
2022/09/28 21:21:38;;;;;;;7.07;2.00;;;6.00;99.90;;;;;;5054261;28;20131;-91
2022/09/28 21:24:07;;;;;;;36.47;3.72;;;6.20;99.90;;;;;;5053906;28;20589;-91
2022/09/28 21:26:45;;;;;;;72.65;4.18;;;6.10;99.90;;;;;;5054703;28;20037;-91
2022/09/28 21:29:13;;;;;;;30.55;2.72;;;6.00;99.90;;;;;;5054975;28;20155;-91
2022/09/28 21:31:41;;;;;;;151.15;5.55;;;6.00;99.90;;;;;;5053133;28;20042;-92
2022/09/28 21:34:12;;;;;;;44.67;3.20;;;6.40;99.90;;;;;;5054337;28;20032;-91
2022/09/28 21:36:38;;;;;;;4.72;3.40;;;6.00;99.90;;;;;;5053554;28;20438;-91
2022/09/28 21:39:04;;;;;;;4.50;3.10;;;6.00;99.90;;;;;;5053859;28;20099;-91
2022/09/28 21:41:30;;;;;;;4.88;2.40;;;6.70;99.90;;;;;;5053500;28;20052;-91
2022/09/28 21:44:08;;;;;;;7.28;4.15;;;5.90;99.90;;;;;;5053861;28;20110;-90
2022/09/28 21:46:35;;;;;;;4.43;2.80;;;6.70;99.90;;;;;;5053576;28;20105;-91
2022/09/28 21:49:03;;;;;;;3.97;1.80;;;5.90;99.90;;;;;;5053836;28;20059;-91
2022/09/28 21:51:37;;;;;;;2.60;1.23;;;5.90;99.90;;;;;;5053019;28;20044;-90
2022/09/28 21:54:03;;;;;;;2.80;1.30;;;5.90;99.90;;;;;;5053144;28;20060;-91
2022/09/28 21:56:29;;;;;;;2.60;1.48;;;5.80;99.90;;;;;;5053351;28;20453;-90
2022/09/28 21:58:57;;;;;;;3.45;1.90;;;5.70;99.90;;;;;;5053498;28;20040;-90